createdAt,value
2022-10-28T00:01:26.045Z,86.98
2022-10-28T00:03:56.567Z,86.82
2022-10-28T00:06:33.597Z,86.65
2022-10-28T00:09:05.551Z,86.67
2022-10-28T00:11:36.212Z,86.56
2022-10-28T00:14:05.952Z,86.70
2022-10-28T00:16:35.773Z,86.77
2022-10-28T00:19:05.505Z,86.88
2022-10-28T00:21:37.104Z,86.98
2022-10-28T00:24:05.848Z,87.10
2022-10-28T00:26:36.649Z,87.09
2022-10-28T00:29:07.055Z,87.10
2022-10-28T00:31:37.858Z,87.08
2022-10-28T00:34:09.427Z,86.94
2022-10-28T00:36:40.663Z,86.80
2022-10-28T00:39:18.013Z,86.66
2022-10-28T00:41:50.909Z,86.54
2022-10-28T00:44:40.794Z,86.50
2022-10-28T00:47:26.851Z,86.37
2022-10-28T00:50:13.584Z,86.31
2022-10-28T00:52:47.087Z,86.32
2022-10-28T00:55:16.433Z,86.25
2022-10-28T00:57:46.236Z,86.25
2022-10-28T01:00:15.332Z,86.14
2022-10-28T01:02:50.525Z,86.32
2022-10-28T01:05:30.142Z,86.42
2022-10-28T01:08:01.794Z,86.58
2022-10-28T01:10:51.309Z,87.01
2022-10-28T01:13:26.637Z,87.36
2022-10-28T01:16:07.535Z,87.35
2022-10-28T01:18:56.369Z,87.40
2022-10-28T01:21:41.078Z,87.28
2022-10-28T01:24:08.706Z,87.11
2022-10-28T01:26:39.488Z,87.05
2022-10-28T01:29:45.773Z,87.13
2022-10-28T01:32:44.022Z,87.11
2022-10-28T01:35:28.171Z,87.03
2022-10-28T01:38:12.571Z,86.93
2022-10-28T01:40:59.231Z,86.96
2022-10-28T01:43:53.852Z,87.09
2022-10-28T01:46:41.444Z,87.05
2022-10-28T01:49:35.150Z,87.06
2022-10-28T01:52:07.564Z,86.98
2022-10-28T01:54:38.035Z,86.95
2022-10-28T01:57:05.908Z,86.94
2022-10-28T01:59:35.502Z,86.97
2022-10-28T02:04:36.884Z,86.96
2022-10-28T02:07:05.715Z,86.98
2022-10-28T02:10:16.298Z,86.98
2022-10-28T02:12:48.060Z,87.01
2022-10-28T02:15:47.390Z,86.96
2022-10-28T02:18:31.586Z,87.00
2022-10-28T02:21:06.201Z,87.05
2022-10-28T02:23:56.102Z,87.04
2022-10-28T02:26:38.970Z,87.07
2022-10-28T02:29:11.591Z,87.11
2022-10-28T02:32:02.095Z,87.20
2022-10-28T02:34:39.247Z,87.21
2022-10-28T02:37:13.614Z,87.18
2022-10-28T02:39:47.861Z,87.30
2022-10-28T02:42:24.330Z,87.33
2022-10-28T02:45:00.357Z,87.32
2022-10-28T02:47:33.448Z,87.69
2022-10-28T02:50:10.409Z,88.18
2022-10-28T02:52:43.725Z,88.17
2022-10-28T02:55:11.748Z,88.11
2022-10-28T02:57:44.932Z,88.14
2022-10-28T03:00:17.965Z,88.09
2022-10-28T03:02:46.353Z,87.99
2022-10-28T03:05:14.525Z,87.86
2022-10-28T03:07:42.853Z,87.79
2022-10-28T03:10:10.868Z,87.89
2022-10-28T03:12:38.843Z,87.77
2022-10-28T03:15:07.042Z,87.66
2022-10-28T03:17:34.721Z,87.56
2022-10-28T03:20:02.426Z,87.49
2022-10-28T03:22:30.185Z,87.41
2022-10-28T03:24:58.138Z,87.43
2022-10-28T03:27:25.842Z,87.64
2022-10-28T03:29:53.578Z,87.57
2022-10-28T03:34:49.967Z,87.49
2022-10-28T03:37:17.730Z,87.45
2022-10-28T03:39:45.393Z,87.44
2022-10-28T03:42:13.177Z,87.39
2022-10-28T03:44:40.871Z,87.35
2022-10-28T03:47:08.551Z,87.32
2022-10-28T03:49:36.816Z,87.29
2022-10-28T03:52:06.181Z,87.27
2022-10-28T03:54:34.325Z,87.32
2022-10-28T03:57:02.075Z,87.30
2022-10-28T03:59:29.884Z,87.28
2022-10-28T04:01:57.614Z,87.33
2022-10-28T04:04:28.421Z,87.39
2022-10-28T04:06:58.902Z,87.31
2022-10-28T04:09:26.618Z,87.27
2022-10-28T04:11:54.325Z,87.26
2022-10-28T04:14:22.003Z,87.21
2022-10-28T04:16:49.647Z,87.11
2022-10-28T04:19:17.330Z,87.07
2022-10-28T04:21:45.061Z,87.38
2022-10-28T04:24:15.427Z,87.54
2022-10-28T04:26:43.215Z,87.58
2022-10-28T04:29:10.875Z,87.55
2022-10-28T04:31:38.703Z,87.53
2022-10-28T04:34:06.475Z,87.46
2022-10-28T04:36:34.241Z,87.55
2022-10-28T04:39:02.022Z,87.50
2022-10-28T04:41:29.753Z,87.38
2022-10-28T04:43:57.500Z,87.29
2022-10-28T04:46:25.270Z,87.18
2022-10-28T04:48:53.079Z,87.08
2022-10-28T04:51:21.000Z,87.01
2022-10-28T04:53:50.583Z,86.93
2022-10-28T04:56:18.261Z,86.92
2022-10-28T04:58:48.583Z,86.92
2022-10-28T05:01:16.496Z,86.95
2022-10-28T05:03:45.074Z,87.02
2022-10-28T05:06:12.858Z,87.07
2022-10-28T05:08:40.599Z,87.03
2022-10-28T05:11:08.363Z,87.03
2022-10-28T05:13:36.061Z,86.91
2022-10-28T05:16:04.375Z,86.80
2022-10-28T05:18:32.157Z,86.68
2022-10-28T05:20:59.949Z,86.62
2022-10-28T05:23:30.770Z,86.55
2022-10-28T05:25:59.099Z,86.49
2022-10-28T05:28:26.849Z,86.43
2022-10-28T05:30:54.913Z,86.43
2022-10-28T05:33:22.808Z,86.39
2022-10-28T05:35:51.387Z,86.36
2022-10-28T05:38:19.113Z,86.41
2022-10-28T05:40:46.875Z,86.47
2022-10-28T05:43:14.928Z,86.45
2022-10-28T05:45:42.618Z,86.46
2022-10-28T05:48:10.331Z,86.47
2022-10-28T05:50:38.080Z,86.64
2022-10-28T05:53:05.722Z,86.62
2022-10-28T05:55:35.430Z,86.56
2022-10-28T05:58:03.286Z,86.56
2022-10-28T06:00:31.960Z,86.46
2022-10-28T06:03:12.328Z,86.33
2022-10-28T06:05:44.524Z,86.19
2022-10-28T06:08:14.373Z,85.94
2022-10-28T06:10:57.511Z,85.66
2022-10-28T06:13:25.296Z,85.45
2022-10-28T06:15:56.383Z,85.32
2022-10-28T06:18:25.140Z,85.25
2022-10-28T06:20:57.817Z,85.15
2022-10-28T06:23:27.439Z,85.12
2022-10-28T06:26:00.627Z,84.97
2022-10-28T06:28:29.933Z,84.76
2022-10-28T06:31:03.013Z,84.53
2022-10-28T06:33:34.022Z,84.23
2022-10-28T06:36:02.274Z,83.92
2022-10-28T06:38:30.648Z,83.61
2022-10-28T06:40:58.563Z,83.20
2022-10-28T06:43:26.751Z,82.96
2022-10-28T06:45:56.083Z,83.02
2022-10-28T06:48:25.308Z,82.67
2022-10-28T06:50:56.795Z,82.56
2022-10-28T06:53:26.207Z,82.47
2022-10-28T06:55:58.456Z,82.03
2022-10-28T06:58:26.870Z,81.51
2022-10-28T07:01:06.137Z,81.35
2022-10-28T07:03:49.061Z,81.08
2022-10-28T07:06:17.512Z,80.90
2022-10-28T07:08:45.535Z,80.79
2022-10-28T07:11:13.241Z,80.51
2022-10-28T07:13:42.459Z,80.63
2022-10-28T07:16:12.538Z,80.60
2022-10-28T07:18:40.200Z,80.66
2022-10-28T07:21:07.889Z,80.52
2022-10-28T07:23:35.987Z,80.54
2022-10-28T07:26:04.885Z,80.53
2022-10-28T07:28:32.530Z,80.51
2022-10-28T07:31:02.840Z,80.43
2022-10-28T07:33:31.160Z,80.04
2022-10-28T07:35:58.877Z,79.90
2022-10-28T07:38:30.097Z,79.89
2022-10-28T07:40:58.038Z,79.57
2022-10-28T07:43:25.904Z,78.88
2022-10-28T07:45:57.880Z,78.48
2022-10-28T07:48:25.969Z,78.29
2022-10-28T07:50:53.678Z,78.38
2022-10-28T07:53:22.693Z,78.36
2022-10-28T07:56:01.841Z,78.50
2022-10-28T07:58:30.544Z,78.28
2022-10-28T08:01:03.567Z,77.65
2022-10-28T08:03:38.613Z,77.80
2022-10-28T08:06:13.720Z,77.39
2022-10-28T08:08:41.373Z,77.25
2022-10-28T08:11:22.840Z,76.55
2022-10-28T08:13:54.190Z,76.54
2022-10-28T08:16:21.988Z,76.38
2022-10-28T08:18:49.620Z,76.30
2022-10-28T08:21:17.635Z,76.17
2022-10-28T08:23:46.970Z,76.16
2022-10-28T08:26:16.454Z,76.09
2022-10-28T08:28:44.354Z,75.57
2022-10-28T08:31:12.745Z,75.20
2022-10-28T08:33:45.457Z,75.11
2022-10-28T08:36:16.018Z,74.62
2022-10-28T08:38:46.184Z,73.67
2022-10-28T08:41:36.758Z,72.31
2022-10-28T08:44:42.859Z,70.98
2022-10-28T08:47:19.523Z,69.33
2022-10-28T08:49:55.292Z,69.05
2022-10-28T08:52:34.284Z,69.30
2022-10-28T08:55:12.695Z,68.13
2022-10-28T08:57:49.279Z,66.56
2022-10-28T09:00:24.578Z,64.84
2022-10-28T09:03:11.191Z,63.52
2022-10-28T09:05:41.354Z,60.51
2022-10-28T09:08:31.718Z,53.07
2022-10-28T09:11:43.533Z,47.69
2022-10-28T09:14:28.120Z,42.82
2022-10-28T09:17:19.176Z,39.31
2022-10-28T09:19:59.187Z,40.32
2022-10-28T09:22:49.158Z,43.28
2022-10-28T09:25:48.889Z,44.61
2022-10-28T09:28:43.477Z,46.39
2022-10-28T09:31:30.840Z,48.36
2022-10-28T09:34:22.862Z,49.35
2022-10-28T09:36:59.010Z,50.23
2022-10-28T09:39:41.315Z,50.89
2022-10-28T09:42:18.427Z,50.74
2022-10-28T09:44:51.887Z,50.70
2022-10-28T09:47:25.998Z,50.97
2022-10-28T09:50:00.004Z,51.93
2022-10-28T09:52:37.976Z,52.03
2022-10-28T09:55:20.263Z,53.00
2022-10-28T09:57:48.601Z,53.05
2022-10-28T10:00:17.600Z,53.29
2022-10-28T10:02:45.939Z,53.11
2022-10-28T10:05:17.389Z,53.12
2022-10-28T10:07:54.055Z,53.52
2022-10-28T10:10:49.137Z,52.99
2022-10-28T10:13:24.322Z,53.29
2022-10-28T10:15:57.100Z,53.41
2022-10-28T10:18:29.945Z,53.69
2022-10-28T10:20:59.227Z,53.61
2022-10-28T10:23:31.587Z,52.74
2022-10-28T10:26:12.956Z,52.96
2022-10-28T10:28:46.996Z,53.44
2022-10-28T10:31:29.921Z,53.37
2022-10-28T10:33:58.859Z,53.33
2022-10-28T10:36:29.253Z,53.43
2022-10-28T10:38:59.664Z,53.18
2022-10-28T10:41:45.086Z,52.48
2022-10-28T10:44:21.596Z,52.02
2022-10-28T10:46:55.501Z,52.57
2022-10-28T10:49:23.180Z,51.86
2022-10-28T10:51:53.225Z,51.67
2022-10-28T10:54:21.297Z,52.47
2022-10-28T10:56:49.135Z,52.01
2022-10-28T10:59:25.168Z,52.40
2022-10-28T11:01:55.913Z,52.07
2022-10-28T11:04:27.950Z,51.41
2022-10-28T11:06:58.137Z,51.38
2022-10-28T11:09:39.659Z,51.52
2022-10-28T11:12:32.188Z,51.51
2022-10-28T11:15:23.215Z,51.83
2022-10-28T11:18:23.698Z,51.87
2022-10-28T11:21:07.466Z,51.64
2022-10-28T11:23:49.364Z,52.19
2022-10-28T11:26:21.588Z,52.44
2022-10-28T11:29:02.335Z,51.98
2022-10-28T11:31:51.357Z,51.39
2022-10-28T11:34:28.512Z,51.42
2022-10-28T11:37:13.292Z,51.61
2022-10-28T11:40:15.613Z,51.46
2022-10-28T11:43:08.922Z,51.39
2022-10-28T11:45:53.648Z,51.29
2022-10-28T11:48:32.836Z,51.36
2022-10-28T11:51:13.088Z,51.15
2022-10-28T11:53:59.175Z,51.49
2022-10-28T11:56:42.408Z,51.45
2022-10-28T11:59:37.515Z,51.45
2022-10-28T12:02:17.008Z,51.29
2022-10-28T12:04:50.931Z,50.87
2022-10-28T12:07:43.126Z,50.57
2022-10-28T12:10:48.804Z,50.60
2022-10-28T12:13:21.598Z,50.81
2022-10-28T12:16:21.007Z,51.55
2022-10-28T12:19:14.457Z,52.56
2022-10-28T12:21:49.663Z,53.21
2022-10-28T12:24:24.231Z,53.95
2022-10-28T12:27:00.325Z,54.27
2022-10-28T12:29:37.431Z,54.66
2022-10-28T12:32:13.534Z,55.19
2022-10-28T12:34:54.006Z,55.54
2022-10-28T12:37:25.922Z,56.22
2022-10-28T12:40:17.406Z,56.70
2022-10-28T12:43:02.226Z,57.04
2022-10-28T12:45:32.363Z,57.45
2022-10-28T12:48:28.601Z,57.80
2022-10-28T12:51:17.206Z,58.19
2022-10-28T12:54:07.906Z,58.19
2022-10-28T12:57:04.133Z,58.18
2022-10-28T12:59:37.206Z,58.75
2022-10-28T13:02:14.865Z,58.99
2022-10-28T13:04:44.748Z,59.20
2022-10-28T13:07:44.932Z,59.53
2022-10-28T13:10:53.910Z,59.59
2022-10-28T13:13:33.551Z,59.95
2022-10-28T13:16:23.161Z,60.03
2022-10-28T13:19:41.264Z,60.34
2022-10-28T13:25:25.244Z,60.56
2022-10-28T13:27:58.061Z,60.86
2022-10-28T13:30:27.351Z,60.99
2022-10-28T13:33:21.749Z,61.16
2022-10-28T13:35:51.000Z,61.15
2022-10-28T13:38:26.980Z,61.08
2022-10-28T13:40:57.917Z,61.19
2022-10-28T13:43:50.822Z,61.49
2022-10-28T13:46:57.069Z,61.82
2022-10-28T13:49:25.807Z,62.07
2022-10-28T13:52:21.163Z,62.37
2022-10-28T13:54:58.912Z,62.68
2022-10-28T13:57:37.011Z,63.07
2022-10-28T14:03:16.469Z,63.71
2022-10-28T14:05:44.255Z,63.98
2022-10-28T14:08:38.668Z,64.31
2022-10-28T14:11:08.830Z,64.71
2022-10-28T14:13:49.021Z,64.88
2022-10-28T14:16:30.167Z,64.97
2022-10-28T14:19:11.380Z,65.34
2022-10-28T14:22:02.086Z,65.63
2022-10-28T14:24:39.847Z,65.82
2022-10-28T14:27:08.177Z,65.96
2022-10-28T14:29:48.936Z,66.10
2022-10-28T14:32:32.366Z,66.20
2022-10-28T14:35:18.157Z,66.58
2022-10-28T14:38:03.269Z,66.97
2022-10-28T14:40:36.255Z,67.25
2022-10-28T14:43:26.435Z,67.72
2022-10-28T14:46:15.732Z,67.96
2022-10-28T14:48:55.911Z,68.23
2022-10-28T14:51:39.290Z,68.29
2022-10-28T14:54:13.627Z,69.02
2022-10-28T14:56:42.069Z,69.09
2022-10-28T14:59:21.643Z,69.55
2022-10-28T15:02:11.395Z,69.71
2022-10-28T15:04:41.825Z,69.91
2022-10-28T15:07:18.485Z,70.01
2022-10-28T15:09:53.428Z,70.33
2022-10-28T15:12:26.268Z,70.76
2022-10-28T15:14:56.657Z,70.95
2022-10-28T15:17:28.193Z,71.08
2022-10-28T15:19:58.987Z,71.59
2022-10-28T15:22:33.367Z,71.68
2022-10-28T15:25:03.314Z,72.03
2022-10-28T15:27:36.155Z,72.31
2022-10-28T15:30:25.809Z,72.31
2022-10-28T15:33:15.920Z,72.28
2022-10-28T15:35:43.693Z,72.60
2022-10-28T15:38:28.619Z,72.58
2022-10-28T15:40:57.601Z,72.48
2022-10-28T15:43:32.462Z,72.77
2022-10-28T15:46:16.471Z,73.11
2022-10-28T15:48:44.202Z,73.07
2022-10-28T15:51:17.306Z,72.97
2022-10-28T15:53:46.463Z,73.33
2022-10-28T15:56:14.347Z,73.35
2022-10-28T15:58:45.359Z,73.80
2022-10-28T16:01:39.613Z,73.80
2022-10-28T16:04:22.994Z,73.81
2022-10-28T16:06:57.089Z,74.19
2022-10-28T16:09:34.347Z,74.36
2022-10-28T16:12:12.036Z,74.43
2022-10-28T16:14:45.702Z,74.57
2022-10-28T16:17:24.078Z,75.06
2022-10-28T16:19:57.871Z,74.98
2022-10-28T16:22:29.662Z,75.69
2022-10-28T16:24:58.959Z,75.87
2022-10-28T16:27:31.288Z,75.67
2022-10-28T16:29:59.145Z,75.85
2022-10-28T16:32:30.860Z,76.25
2022-10-28T16:35:01.079Z,76.23
2022-10-28T16:37:31.477Z,76.23
2022-10-28T16:40:00.051Z,76.17
2022-10-28T16:42:28.057Z,76.29
2022-10-28T16:44:55.814Z,76.54
2022-10-28T16:47:29.125Z,76.81
2022-10-28T16:49:57.553Z,76.96
2022-10-28T16:52:29.919Z,76.99
2022-10-28T16:54:58.749Z,76.98
2022-10-28T16:57:28.911Z,77.13
2022-10-28T16:59:56.659Z,77.01
2022-10-28T17:02:28.902Z,77.41
2022-10-28T17:04:59.055Z,77.62
2022-10-28T17:07:29.043Z,77.72
2022-10-28T17:09:57.548Z,77.86
2022-10-28T17:12:27.462Z,78.08
2022-10-28T17:14:55.314Z,78.19
2022-10-28T17:17:23.026Z,78.37
2022-10-28T17:19:51.339Z,78.25
2022-10-28T17:22:19.179Z,78.34
2022-10-28T17:24:47.142Z,78.44
2022-10-28T17:27:16.145Z,78.56
2022-10-28T17:29:43.919Z,78.58
2022-10-28T17:32:12.890Z,78.67
2022-10-28T17:34:41.023Z,78.96
2022-10-28T17:37:10.599Z,79.20
2022-10-28T17:39:38.367Z,79.24
2022-10-28T17:42:06.227Z,79.47
2022-10-28T17:44:35.515Z,79.59
2022-10-28T17:47:03.275Z,79.79
2022-10-28T17:49:32.935Z,79.55
2022-10-28T17:52:00.746Z,79.95
2022-10-28T17:54:30.770Z,79.78
2022-10-28T17:56:58.530Z,79.55
2022-10-28T17:59:27.665Z,79.62
2022-10-28T18:01:55.863Z,80.07
2022-10-28T18:04:27.894Z,80.28
2022-10-28T18:06:58.087Z,80.38
2022-10-28T18:09:29.341Z,80.49
2022-10-28T18:11:59.886Z,80.40
2022-10-28T18:14:30.730Z,80.59
2022-10-28T18:16:59.132Z,80.33
2022-10-28T18:19:26.975Z,80.20
2022-10-28T18:21:55.055Z,80.19
2022-10-28T18:24:25.953Z,80.51
2022-10-28T18:26:55.987Z,80.42
2022-10-28T18:29:24.291Z,80.33
2022-10-28T18:31:52.560Z,80.27
2022-10-28T18:34:21.369Z,80.44
2022-10-28T18:36:49.907Z,80.54
2022-10-28T18:39:17.810Z,80.85
2022-10-28T18:41:45.586Z,80.88
2022-10-28T18:44:14.719Z,81.11
2022-10-28T18:46:42.745Z,81.10
2022-10-28T18:49:10.485Z,81.07
2022-10-28T18:51:38.413Z,81.20
2022-10-28T18:54:06.224Z,81.35
2022-10-28T18:56:34.405Z,81.41
2022-10-28T18:59:04.656Z,81.59
2022-10-28T19:01:33.530Z,81.66
2022-10-28T19:04:04.620Z,81.64
2022-10-28T19:06:33.842Z,81.59
2022-10-28T19:09:05.223Z,81.83
2022-10-28T19:11:34.338Z,82.05
2022-10-28T19:14:05.136Z,82.05
2022-10-28T19:16:36.218Z,81.89
2022-10-28T19:19:05.949Z,82.19
2022-10-28T19:21:34.269Z,82.32
2022-10-28T19:24:02.270Z,82.23
2022-10-28T19:26:32.061Z,82.27
2022-10-28T19:29:00.714Z,82.41
2022-10-28T19:31:30.923Z,82.74
2022-10-28T19:33:58.703Z,82.84
2022-10-28T19:36:29.096Z,83.03
2022-10-28T19:38:58.562Z,82.86
2022-10-28T19:41:30.822Z,83.01
2022-10-28T19:44:02.936Z,83.20
2022-10-28T19:46:33.780Z,83.14
2022-10-28T19:49:05.955Z,83.32
2022-10-28T19:51:40.417Z,83.42
2022-10-28T19:54:15.197Z,83.46
2022-10-28T19:56:44.777Z,83.51
2022-10-28T19:59:13.261Z,83.51
2022-10-28T20:01:41.813Z,83.45
2022-10-28T20:04:10.329Z,83.46
2022-10-28T20:06:40.921Z,83.58
2022-10-28T20:09:08.833Z,83.57
2022-10-28T20:11:39.513Z,83.44
2022-10-28T20:14:12.023Z,83.47
2022-10-28T20:16:44.181Z,83.60
2022-10-28T20:19:12.492Z,83.62
2022-10-28T20:21:41.361Z,83.81
2022-10-28T20:24:09.101Z,84.14
2022-10-28T20:26:39.189Z,84.28
2022-10-28T20:29:08.902Z,84.24
2022-10-28T20:31:39.202Z,84.45
2022-10-28T20:34:08.210Z,84.26
2022-10-28T20:36:41.966Z,84.12
2022-10-28T20:39:13.870Z,84.41
2022-10-28T20:41:43.467Z,84.60
2022-10-28T20:44:12.009Z,84.75
2022-10-28T20:46:40.255Z,84.77
2022-10-28T20:49:09.088Z,84.73
2022-10-28T20:51:37.063Z,84.85
2022-10-28T20:54:05.129Z,84.96
2022-10-28T20:56:36.584Z,85.11
2022-10-28T20:59:04.866Z,85.24
2022-10-28T21:01:39.157Z,85.21
2022-10-28T21:04:10.909Z,85.29
2022-10-28T21:06:40.270Z,85.31
2022-10-28T21:09:11.893Z,85.45
2022-10-28T21:11:39.727Z,85.56
2022-10-28T21:14:07.514Z,85.58
2022-10-28T21:16:35.866Z,85.54
2022-10-28T21:19:03.834Z,85.47
2022-10-28T21:21:31.625Z,85.51
2022-10-28T21:24:02.533Z,85.55
2022-10-28T21:26:30.241Z,85.51
2022-10-28T21:28:58.087Z,85.52
2022-10-28T21:31:25.741Z,85.49
2022-10-28T21:33:53.996Z,85.47
2022-10-28T21:36:23.286Z,85.50
2022-10-28T21:38:56.065Z,85.44
2022-10-28T21:41:24.587Z,85.40
2022-10-28T21:43:54.401Z,85.35
2022-10-28T21:46:24.540Z,85.33
2022-10-28T21:48:53.614Z,85.37
2022-10-28T21:51:21.960Z,85.35
2022-10-28T21:53:50.138Z,85.36
2022-10-28T21:56:20.213Z,85.38
2022-10-28T21:58:51.466Z,85.41
2022-10-28T22:01:22.191Z,85.39
2022-10-28T22:03:52.504Z,85.38
2022-10-28T22:06:22.443Z,85.41
2022-10-28T22:08:54.017Z,85.45
2022-10-28T22:11:23.679Z,85.43
2022-10-28T22:13:59.949Z,85.38
2022-10-28T22:16:30.137Z,85.44
2022-10-28T22:18:59.949Z,85.53
2022-10-28T22:21:30.996Z,85.53
2022-10-28T22:23:59.647Z,85.55
2022-10-28T22:26:30.305Z,85.51
2022-10-28T22:28:58.280Z,85.40
2022-10-28T22:31:29.143Z,85.51
2022-10-28T22:33:57.905Z,85.72
2022-10-28T22:36:28.428Z,85.85
2022-10-28T22:38:57.661Z,85.90
2022-10-28T22:41:28.586Z,85.89
2022-10-28T22:43:59.531Z,85.94
2022-10-28T22:46:31.776Z,85.98
2022-10-28T22:49:00.297Z,85.99
2022-10-28T22:51:28.400Z,86.05
2022-10-28T22:53:56.399Z,86.07
2022-10-28T22:56:26.730Z,86.04
2022-10-28T22:58:57.757Z,86.10
2022-10-28T23:01:27.644Z,86.02
2022-10-28T23:03:56.259Z,85.99
2022-10-28T23:06:26.594Z,86.03
2022-10-28T23:08:54.806Z,86.06
2022-10-28T23:11:23.335Z,86.16
2022-10-28T23:13:53.058Z,86.14
2022-10-28T23:16:22.477Z,86.22
2022-10-28T23:18:53.053Z,86.27
2022-10-28T23:21:23.819Z,86.30
2022-10-28T23:23:58.215Z,86.22
2022-10-28T23:26:28.471Z,86.19
2022-10-28T23:28:59.714Z,86.25
2022-10-28T23:31:29.078Z,86.23
2022-10-28T23:33:58.317Z,86.33
2022-10-28T23:36:26.251Z,86.32
2022-10-28T23:38:56.889Z,86.38
2022-10-28T23:41:25.242Z,86.27
2022-10-28T23:43:52.906Z,86.21
2022-10-28T23:46:21.749Z,86.21
2022-10-28T23:48:49.414Z,86.29
2022-10-28T23:51:19.517Z,86.33
2022-10-28T23:53:47.183Z,86.32
2022-10-28T23:56:16.147Z,86.36
2022-10-28T23:58:43.851Z,86.40
